Time;durP1;ratioP1;P1;durP2;ratioP2;P2;SDS_P1;SDS_P2;PMS_P1;PMS_P2;Temp;Humidity;BMP_temperature;BMP_pressure;BME280_temperature;BME280_humidity;BME280_pressure;Samples;Min_cycle;Max_cycle;Signal;HPM_P1;HPM_P2
2022/03/06 00:00:13;;;;;;;12.57;6.83;;;-5.00;96.30;;;;;;4943137;29;20527;-79
2022/03/06 00:02:39;;;;;;;11.87;7.03;;;-5.10;96.30;;;;;;4942129;29;20202;-79
2022/03/06 00:05:05;;;;;;;14.73;7.47;;;-5.10;96.30;;;;;;4942046;29;20179;-78
2022/03/06 00:07:31;;;;;;;12.77;7.00;;;-5.10;96.30;;;;;;4959783;28;20210;-79
2022/03/06 00:09:56;;;;;;;12.20;8.07;;;-5.10;96.30;;;;;;4963641;29;20411;-79
2022/03/06 00:12:22;;;;;;;13.27;7.90;;;-5.00;96.30;;;;;;4962321;29;20209;-78
2022/03/06 00:14:48;;;;;;;12.93;7.27;;;-5.00;96.30;;;;;;4947666;29;20175;-78
2022/03/06 00:17:14;;;;;;;10.63;7.27;;;-4.80;96.30;;;;;;4945880;29;20178;-79
2022/03/06 00:19:39;;;;;;;12.67;7.70;;;-4.60;96.30;;;;;;4958087;29;20419;-79
2022/03/06 00:22:05;;;;;;;15.40;9.17;;;-4.60;96.30;;;;;;4958137;29;20227;-79
2022/03/06 00:24:30;;;;;;;16.27;10.67;;;-4.60;96.30;;;;;;4941215;29;20182;-79
2022/03/06 00:26:56;;;;;;;14.90;8.73;;;-4.70;96.30;;;;;;4941246;29;20191;-78
2022/03/06 00:29:21;;;;;;;20.03;8.33;;;-4.70;96.30;;;;;;4940952;29;20207;-78
2022/03/06 00:31:46;;;;;;;13.07;7.93;;;-4.80;96.30;;;;;;4941231;29;20286;-79
2022/03/06 00:34:12;;;;;;;12.23;8.63;;;-4.80;96.30;;;;;;4959008;29;20203;-79
2022/03/06 00:36:37;;;;;;;11.27;7.87;;;-4.70;96.30;;;;;;4941362;29;20182;-79
2022/03/06 00:39:06;;;;;;;13.77;8.03;;;-4.50;96.30;;;;;;4958509;29;20186;-79
2022/03/06 00:41:32;;;;;;;11.33;8.50;;;-4.50;96.30;;;;;;4941352;29;20812;-79
2022/03/06 00:43:57;;;;;;;35.07;17.97;;;-4.60;96.30;;;;;;4958360;29;20454;-77
2022/03/06 00:46:23;;;;;;;23.97;13.47;;;-4.60;96.30;;;;;;4958042;29;20179;-79
2022/03/06 00:48:49;;;;;;;26.40;14.20;;;-4.70;96.30;;;;;;4957819;29;20537;-78
2022/03/06 00:51:15;;;;;;;22.33;10.83;;;-4.70;96.30;;;;;;4958067;29;20625;-79
2022/03/06 00:53:41;;;;;;;20.70;10.40;;;-4.70;96.30;;;;;;4940913;29;20234;-79
2022/03/06 00:56:07;;;;;;;13.53;9.33;;;-4.60;96.30;;;;;;4958511;29;20402;-79
2022/03/06 00:58:33;;;;;;;13.67;8.80;;;-4.60;96.30;;;;;;4958857;29;20783;-79
2022/03/06 05:01:47;;;;;;;15.00;9.07;;;-3.60;96.30;;;;;;5318150;23;20501;-76
2022/03/06 05:04:13;;;;;;;11.10;8.40;;;-3.50;96.30;;;;;;4975265;28;20410;-77
2022/03/06 05:06:38;;;;;;;10.00;6.70;;;-3.40;96.30;;;;;;4975229;28;20181;-77
2022/03/06 05:09:03;;;;;;;11.53;6.30;;;-3.40;96.30;;;;;;4971757;28;20214;-78
2022/03/06 05:11:29;;;;;;;11.30;6.27;;;-3.40;96.30;;;;;;4983839;28;20202;-77
2022/03/06 05:13:55;;;;;;;12.33;5.57;;;-3.40;96.30;;;;;;4958284;28;20174;-77
2022/03/06 05:16:20;;;;;;;7.60;5.80;;;-3.40;96.30;;;;;;4960044;28;20174;-79
2022/03/06 05:18:46;;;;;;;9.23;6.17;;;-3.50;96.30;;;;;;4959764;28;20667;-78
2022/03/06 05:26:22;;;;;;;8.80;5.27;;;-3.60;96.30;;;;;;5759851;23;20489;-78
2022/03/06 05:28:48;;;;;;;9.10;5.53;;;-3.60;96.30;;;;;;4938126;29;20452;-78
2022/03/06 05:31:14;;;;;;;11.27;5.83;;;-3.50;96.30;;;;;;4939078;29;20203;-78
2022/03/06 05:33:40;;;;;;;12.13;7.00;;;-3.60;96.30;;;;;;4944019;29;20249;-79
2022/03/06 05:36:05;;;;;;;10.27;6.50;;;-3.60;96.30;;;;;;4960817;29;20419;-79
2022/03/06 05:38:31;;;;;;;14.10;5.93;;;-3.60;96.30;;;;;;4960791;29;20167;-78
2022/03/06 05:40:56;;;;;;;8.30;5.67;;;-3.50;96.30;;;;;;4945083;29;20191;-79
2022/03/06 05:43:22;;;;;;;6.73;5.40;;;-3.40;96.30;;;;;;4945688;29;20274;-78
2022/03/06 05:45:51;;;;;;;10.63;6.03;;;-3.40;96.30;;;;;;4936449;29;20171;-78
2022/03/06 05:48:18;;;;;;;6.13;4.73;;;-3.40;96.30;;;;;;4936187;29;20282;-78
2022/03/06 05:50:44;;;;;;;7.60;5.20;;;-3.50;96.30;;;;;;4919200;29;20475;-78
2022/03/06 05:53:09;;;;;;;11.63;5.67;;;-3.50;96.30;;;;;;4936568;29;20927;-77
2022/03/06 05:55:35;;;;;;;11.93;5.83;;;-3.50;96.30;;;;;;4943531;29;20176;-78
2022/03/06 05:58:01;;;;;;;10.20;5.87;;;-3.50;96.30;;;;;;4934748;29;20732;-78
2022/03/06 06:00:26;;;;;;;9.37;5.97;;;-3.50;96.30;;;;;;4935389;29;20175;-78
2022/03/06 06:02:52;;;;;;;8.30;6.47;;;-3.50;96.30;;;;;;4936362;29;20667;-79
2022/03/06 06:05:17;;;;;;;12.37;7.33;;;-3.50;96.30;;;;;;4935277;29;20179;-79
2022/03/06 06:07:43;;;;;;;12.00;6.70;;;-3.50;96.30;;;;;;4934905;29;20179;-79
2022/03/06 06:10:09;;;;;;;14.60;6.13;;;-3.50;96.30;;;;;;4936147;29;20195;-79
2022/03/06 06:12:34;;;;;;;8.67;6.30;;;-3.50;96.30;;;;;;4936918;29;20195;-79
2022/03/06 06:15:00;;;;;;;9.67;6.50;;;-3.40;96.30;;;;;;4936992;29;20431;-79
2022/03/06 06:17:26;;;;;;;7.43;6.37;;;-3.40;96.30;;;;;;4937182;29;20184;-79
2022/03/06 06:19:51;;;;;;;9.43;6.20;;;-3.40;96.30;;;;;;4916072;29;20602;-79
2022/03/06 06:22:17;;;;;;;8.53;6.67;;;-3.30;96.30;;;;;;4900871;29;20208;-78
2022/03/06 06:24:42;;;;;;;14.10;8.03;;;-3.30;96.30;;;;;;4901017;29;20630;-78
2022/03/06 06:27:08;;;;;;;16.00;8.37;;;-3.20;96.30;;;;;;4916548;29;20223;-78
2022/03/06 06:29:33;;;;;;;12.63;7.87;;;-3.20;96.30;;;;;;4915334;29;20578;-79
2022/03/06 06:31:59;;;;;;;11.07;7.60;;;-3.10;96.30;;;;;;4916000;29;20256;-78
2022/03/06 06:34:24;;;;;;;11.97;7.80;;;-3.00;96.30;;;;;;4899062;29;20177;-78
2022/03/06 06:36:50;;;;;;;16.40;8.30;;;-3.00;96.30;;;;;;4916095;29;20184;-78
2022/03/06 06:39:16;;;;;;;10.73;7.63;;;-2.90;96.30;;;;;;4898854;29;20223;-79
2022/03/06 06:41:43;;;;;;;13.43;8.10;;;-2.90;96.30;;;;;;4916360;29;20432;-78
2022/03/06 06:44:09;;;;;;;10.53;7.53;;;-2.80;96.30;;;;;;4899331;29;20270;-79
2022/03/06 06:46:35;;;;;;;12.00;7.70;;;-2.70;96.30;;;;;;4898943;29;20424;-78
2022/03/06 06:49:03;;;;;;;13.03;8.07;;;-2.60;96.30;;;;;;4898885;29;20551;-78
2022/03/06 06:51:29;;;;;;;15.60;7.50;;;-2.60;96.30;;;;;;4915870;29;20563;-79
2022/03/06 06:53:54;;;;;;;14.37;7.97;;;-2.60;96.30;;;;;;4898974;29;20410;-78
2022/03/06 06:56:20;;;;;;;11.90;8.10;;;-2.60;96.30;;;;;;4915911;29;20423;-79
2022/03/06 06:58:45;;;;;;;13.00;8.30;;;-2.60;96.30;;;;;;4915833;29;20184;-79
2022/03/06 07:01:11;;;;;;;11.90;8.20;;;-2.60;96.30;;;;;;4915742;29;20283;-79
2022/03/06 07:03:36;;;;;;;12.20;7.80;;;-2.50;96.30;;;;;;4915958;29;20176;-79
2022/03/06 07:06:02;;;;;;;10.47;6.83;;;-2.50;96.30;;;;;;4916186;29;20177;-79
2022/03/06 07:08:28;;;;;;;9.70;7.30;;;-2.40;96.30;;;;;;4931983;29;20669;-78
2022/03/06 07:10:53;;;;;;;10.83;7.43;;;-2.40;96.30;;;;;;4934776;29;20187;-78
2022/03/06 07:13:19;;;;;;;10.93;6.17;;;-2.30;96.30;;;;;;4934825;29;20173;-77
2022/03/06 07:15:44;;;;;;;12.33;6.97;;;-2.30;96.30;;;;;;4934722;29;20179;-79
2022/03/06 07:18:10;;;;;;;12.33;7.97;;;-2.20;96.30;;;;;;4920664;29;20228;-79
2022/03/06 07:20:35;;;;;;;9.27;6.30;;;-2.20;96.30;;;;;;4938730;29;20199;-78
2022/03/06 07:23:01;;;;;;;11.47;7.27;;;-2.10;96.30;;;;;;4938778;29;20205;-78
2022/03/06 07:25:26;;;;;;;9.00;6.00;;;-2.10;96.30;;;;;;4921558;29;20699;-79
2022/03/06 07:27:52;;;;;;;11.10;6.97;;;-2.20;96.30;;;;;;4938122;29;20195;-78
2022/03/06 07:30:17;;;;;;;12.63;5.83;;;-2.20;96.30;;;;;;4914329;29;20187;-77
2022/03/06 07:32:45;;;;;;;6.80;5.30;;;-2.10;96.30;;;;;;4902914;29;20180;-77
2022/03/06 07:35:11;;;;;;;12.60;6.20;;;-2.10;96.30;;;;;;4902432;29;20187;-78
2022/03/06 07:37:37;;;;;;;6.77;4.87;;;-2.00;96.30;;;;;;4919145;29;20420;-79
2022/03/06 07:40:03;;;;;;;16.03;4.10;;;-1.90;96.30;;;;;;4931715;29;20180;-80
2022/03/06 07:42:28;;;;;;;6.47;4.53;;;-1.90;96.30;;;;;;4939863;29;20207;-80
2022/03/06 07:44:54;;;;;;;10.53;3.90;;;-1.90;96.30;;;;;;4927122;29;20475;-77
2022/03/06 07:47:19;;;;;;;6.17;3.90;;;-1.80;96.30;;;;;;4902001;29;20653;-77
2022/03/06 07:49:45;;;;;;;6.60;4.40;;;-1.90;96.30;;;;;;4920979;29;20745;-81
2022/03/06 07:52:10;;;;;;;6.97;4.00;;;-1.80;96.30;;;;;;4940027;29;20202;-80
2022/03/06 07:54:36;;;;;;;7.00;3.80;;;-1.80;96.30;;;;;;4908186;29;20228;-82
2022/03/06 07:57:02;;;;;;;7.73;3.43;;;-1.80;96.30;;;;;;4932079;29;20180;-79
2022/03/06 07:59:28;;;;;;;8.50;4.10;;;-1.70;96.30;;;;;;4902457;29;20195;-79
2022/03/06 08:01:54;;;;;;;6.03;3.67;;;-1.70;96.30;;;;;;4902295;29;20208;-78
2022/03/06 08:04:19;;;;;;;5.13;3.60;;;-1.80;96.30;;;;;;4914169;29;20793;-80
2022/03/06 08:06:46;;;;;;;6.80;3.90;;;-1.70;96.30;;;;;;4920798;29;20210;-79
2022/03/06 08:09:12;;;;;;;4.90;3.03;;;-1.70;96.30;;;;;;4920048;29;20239;-78
2022/03/06 08:11:37;;;;;;;4.40;3.33;;;-1.70;96.30;;;;;;4920667;29;20518;-78
2022/03/06 08:14:03;;;;;;;4.77;3.67;;;-1.70;96.30;;;;;;4920664;29;20825;-78
2022/03/06 08:16:28;;;;;;;9.17;4.10;;;-1.70;96.30;;;;;;4937597;29;20234;-78
2022/03/06 08:18:54;;;;;;;4.30;3.27;;;-1.60;96.30;;;;;;4919928;29;20274;-79
2022/03/06 08:21:19;;;;;;;6.17;3.07;;;-1.50;96.30;;;;;;4937619;29;20604;-78
2022/03/06 08:23:45;;;;;;;5.20;3.33;;;-1.40;96.30;;;;;;4920238;29;20195;-78
2022/03/06 08:26:10;;;;;;;6.47;3.90;;;-1.50;96.30;;;;;;4920290;29;20202;-79
2022/03/06 08:28:36;;;;;;;4.67;3.77;;;-1.30;96.30;;;;;;4919159;29;20199;-79
2022/03/06 08:31:01;;;;;;;7.13;3.30;;;-1.20;96.30;;;;;;4920320;29;20195;-79
2022/03/06 08:33:27;;;;;;;5.93;3.40;;;-1.30;96.30;;;;;;4920281;29;20172;-79
2022/03/06 08:35:52;;;;;;;4.80;3.37;;;-1.30;96.30;;;;;;4901009;29;20651;-79
2022/03/06 08:38:18;;;;;;;4.80;3.80;;;-1.20;96.30;;;;;;4898609;29;20284;-78
2022/03/06 08:40:44;;;;;;;6.17;3.40;;;-1.10;96.30;;;;;;4900233;29;20211;-80
2022/03/06 08:43:10;;;;;;;5.00;2.90;;;-1.00;96.30;;;;;;4918732;29;20183;-79
2022/03/06 08:45:37;;;;;;;4.17;3.17;;;-1.00;96.30;;;;;;4919867;29;20847;-80
2022/03/06 08:48:03;;;;;;;6.00;3.27;;;-1.00;96.30;;;;;;4919464;29;20201;-80
2022/03/06 08:50:29;;;;;;;5.90;3.93;;;-0.90;96.30;;;;;;4920011;29;20455;-80
2022/03/06 08:52:54;;;;;;;7.03;4.10;;;-0.80;96.30;;;;;;4937176;29;20950;-78
2022/03/06 08:55:20;;;;;;;6.00;3.43;;;-0.80;96.30;;;;;;4937343;29;20645;-80
2022/03/06 08:57:45;;;;;;;6.70;2.80;;;-0.70;96.30;;;;;;4937011;29;20211;-79
2022/03/06 09:00:11;;;;;;;6.20;4.43;;;-0.90;96.30;;;;;;4920292;29;20693;-80
2022/03/06 09:02:36;;;;;;;5.20;3.90;;;-0.80;96.30;;;;;;4937012;29;20184;-82
2022/03/06 09:05:02;;;;;;;4.47;3.30;;;-0.70;96.30;;;;;;4917029;29;20188;-80
2022/03/06 09:07:28;;;;;;;5.90;3.10;;;-0.60;96.30;;;;;;4918477;29;20287;-80
2022/03/06 09:09:53;;;;;;;5.50;3.50;;;-0.70;96.30;;;;;;4919678;29;20199;-80
2022/03/06 09:12:19;;;;;;;7.80;4.17;;;-0.60;96.30;;;;;;4936916;29;20819;-81
2022/03/06 09:14:45;;;;;;;4.07;2.80;;;-0.50;96.30;;;;;;4937075;29;20246;-81
2022/03/06 09:17:11;;;;;;;6.63;3.70;;;-0.40;96.30;;;;;;4937245;29;20903;-81
2022/03/06 09:19:37;;;;;;;5.83;3.87;;;-0.40;96.30;;;;;;4910807;29;20176;-81
2022/03/06 09:22:03;;;;;;;8.17;3.27;;;-0.30;96.30;;;;;;4912011;29;20450;-81
2022/03/06 09:24:28;;;;;;;3.63;3.17;;;-0.10;96.30;;;;;;4938031;29;20207;-80
2022/03/06 09:26:54;;;;;;;4.23;2.80;;;-0.10;96.30;;;;;;4923315;29;20201;-81
2022/03/06 09:29:20;;;;;;;4.60;3.80;;;-0.10;96.30;;;;;;4919022;29;20573;-81
2022/03/06 09:31:46;;;;;;;3.83;3.43;;;-0.10;96.30;;;;;;4902969;29;20450;-80
2022/03/06 09:34:11;;;;;;;4.43;3.47;;;0.00;96.30;;;;;;4901128;29;20892;-80
2022/03/06 09:36:37;;;;;;;5.17;3.30;;;-0.10;96.30;;;;;;4915774;29;20562;-82
2022/03/06 09:39:05;;;;;;;4.97;3.03;;;0.00;96.30;;;;;;4919265;29;20666;-80
2022/03/06 09:41:31;;;;;;;7.73;3.63;;;0.20;96.30;;;;;;4914620;29;20206;-80
2022/03/06 09:43:57;;;;;;;8.47;3.57;;;0.30;96.30;;;;;;4921507;29;20778;-81
2022/03/06 09:46:24;;;;;;;5.00;3.20;;;0.30;96.30;;;;;;4915479;29;20423;-80
2022/03/06 09:48:50;;;;;;;3.73;3.07;;;0.20;96.30;;;;;;4911384;29;20200;-80
2022/03/06 09:51:16;;;;;;;6.50;2.83;;;0.10;96.30;;;;;;4908302;29;20946;-81
2022/03/06 09:53:42;;;;;;;4.00;2.70;;;0.10;96.30;;;;;;4920651;29;20499;-80
2022/03/06 09:56:07;;;;;;;4.00;3.50;;;0.00;96.30;;;;;;4901820;29;20187;-79
2022/03/06 09:58:33;;;;;;;4.13;3.30;;;-0.10;96.30;;;;;;4917060;29;20192;-80
2022/03/06 10:00:59;;;;;;;4.27;2.67;;;-0.30;96.30;;;;;;4917203;29;20204;-79
2022/03/06 10:03:25;;;;;;;5.13;3.23;;;-0.30;96.30;;;;;;4900242;29;20184;-79
2022/03/06 10:05:51;;;;;;;3.53;3.07;;;-0.20;96.30;;;;;;4900225;29;20239;-80
2022/03/06 10:08:28;;;;;;;5.80;2.80;;;-0.10;96.30;;;;;;4916065;29;20475;-79
2022/03/06 10:11:09;;;;;;;3.80;3.17;;;-0.10;96.30;;;;;;4936682;29;20948;-79
2022/03/06 10:13:37;;;;;;;4.83;2.90;;;-0.10;96.30;;;;;;4935032;29;20419;-80
2022/03/06 10:16:19;;;;;;;5.03;3.10;;;-0.10;96.30;;;;;;4919397;29;20420;-80
2022/03/06 10:18:51;;;;;;;6.37;3.73;;;-0.10;96.30;;;;;;4918689;29;20514;-79
2022/03/06 10:21:32;;;;;;;4.73;3.30;;;0.00;96.30;;;;;;4918929;29;20960;-80
2022/03/06 10:24:06;;;;;;;5.57;3.30;;;0.30;96.30;;;;;;4919452;29;20431;-80
2022/03/06 10:26:32;;;;;;;4.90;3.10;;;0.40;96.30;;;;;;4919051;29;20439;-80
2022/03/06 10:29:11;;;;;;;3.73;2.90;;;0.60;96.30;;;;;;4919547;29;20987;-81
2022/03/06 10:31:51;;;;;;;4.10;3.17;;;0.70;96.30;;;;;;4924173;29;20449;-81
2022/03/06 10:34:18;;;;;;;4.30;3.20;;;0.60;96.30;;;;;;4937568;29;20399;-82
2022/03/06 10:36:45;;;;;;;3.93;2.63;;;0.40;96.30;;;;;;4919510;29;20933;-82
2022/03/06 10:39:11;;;;;;;9.10;3.10;;;0.50;96.30;;;;;;4935281;29;20420;-82
2022/03/06 10:41:39;;;;;;;3.30;2.93;;;0.20;96.30;;;;;;4905025;29;20456;-83
2022/03/06 10:44:06;;;;;;;4.10;2.67;;;0.00;96.30;;;;;;4900041;29;20197;-82
2022/03/06 10:46:34;;;;;;;5.30;3.40;;;-0.10;96.30;;;;;;4900616;29;20460;-82
2022/03/06 10:49:07;;;;;;;4.10;2.63;;;-0.10;96.30;;;;;;4901319;29;20467;-79
2022/03/06 10:51:40;;;;;;;3.47;2.87;;;-0.10;96.30;;;;;;4898743;29;20530;-80
2022/03/06 10:54:06;;;;;;;3.43;2.47;;;0.10;96.30;;;;;;4916199;29;20752;-80
2022/03/06 10:56:32;;;;;;;3.20;2.70;;;0.30;96.30;;;;;;4920147;29;20419;-78
2022/03/06 10:58:58;;;;;;;2.60;2.30;;;0.10;96.30;;;;;;4905716;29;20536;-78
2022/03/06 11:01:24;;;;;;;7.50;2.70;;;-0.10;96.30;;;;;;4898925;29;20573;-81
2022/03/06 11:03:53;;;;;;;10.37;3.13;;;-0.10;96.30;;;;;;4900606;29;20266;-81
2022/03/06 11:06:20;;;;;;;5.50;3.30;;;-0.20;96.30;;;;;;4899779;29;20424;-79
2022/03/06 11:08:47;;;;;;;5.03;3.50;;;-0.20;96.30;;;;;;4927772;29;20968;-79
2022/03/06 11:11:14;;;;;;;8.43;2.33;;;-0.10;96.30;;;;;;4933547;29;20435;-78
2022/03/06 11:13:39;;;;;;;1.73;1.63;;;-0.20;96.30;;;;;;4934607;29;20422;-80
2022/03/06 11:16:05;;;;;;;4.03;2.83;;;-0.40;96.30;;;;;;4917381;29;20514;-78
2022/03/06 11:18:33;;;;;;;3.47;2.40;;;-0.60;96.30;;;;;;4934877;29;20176;-78
2022/03/06 12:23:06;;;;;;;2.77;2.43;;;-1.20;96.30;;;;;;5470890;23;20490;-79
2022/03/06 12:25:34;;;;;;;5.43;2.57;;;-1.20;96.30;;;;;;4937966;29;20507;-78
2022/03/06 12:28:05;;;;;;;5.53;3.23;;;-1.00;96.30;;;;;;4937671;29;20463;-79
2022/03/06 12:30:32;;;;;;;3.20;2.87;;;-1.00;96.30;;;;;;4937862;29;20963;-78
2022/03/06 12:33:25;;;;;;;5.13;3.00;;;-1.10;96.30;;;;;;4937763;29;21038;-78
2022/03/06 12:35:50;;;;;;;3.33;2.10;;;-1.00;96.30;;;;;;4920034;29;20427;-79
2022/03/06 12:38:22;;;;;;;4.50;2.80;;;-1.10;96.30;;;;;;4920035;29;20482;-78
2022/03/06 12:40:47;;;;;;;3.60;3.20;;;-1.20;96.30;;;;;;4920108;29;20199;-79
2022/03/06 12:43:19;;;;;;;4.90;2.97;;;-1.30;96.30;;;;;;4920541;29;20438;-77
2022/03/06 12:45:46;;;;;;;5.30;3.10;;;-1.40;96.30;;;;;;4938806;29;20172;-80
2022/03/06 12:48:11;;;;;;;2.80;2.50;;;-1.40;96.30;;;;;;4921161;29;20438;-79
2022/03/06 12:50:41;;;;;;;4.77;2.60;;;-1.30;96.30;;;;;;4921396;29;20443;-80
2022/03/06 12:53:07;;;;;;;3.00;2.20;;;-1.40;96.30;;;;;;4921240;29;20184;-78
2022/03/06 12:55:32;;;;;;;2.47;2.23;;;-1.40;96.30;;;;;;4938608;29;20418;-80
2022/03/06 12:58:00;;;;;;;3.33;2.50;;;-1.50;96.30;;;;;;4921615;29;20640;-79
2022/03/06 13:00:29;;;;;;;2.13;1.93;;;-1.50;96.30;;;;;;4920599;29;20631;-80
2022/03/06 13:02:57;;;;;;;7.17;2.77;;;-1.50;96.30;;;;;;4937572;29;20894;-78
2022/03/06 13:05:23;;;;;;;5.57;2.57;;;-1.50;96.30;;;;;;4937116;29;20422;-79
2022/03/06 13:07:53;;;;;;;4.23;3.10;;;-1.30;96.30;;;;;;4919944;29;20427;-79
2022/03/06 13:10:20;;;;;;;3.87;2.60;;;-1.20;96.30;;;;;;4937309;29;20467;-79
2022/03/06 13:12:51;;;;;;;2.70;2.40;;;-1.00;96.30;;;;;;4920312;29;20520;-79
2022/03/06 13:15:16;;;;;;;3.30;2.23;;;-1.00;96.30;;;;;;4920052;29;20871;-79
2022/03/06 13:17:54;;;;;;;2.33;1.63;;;-1.00;96.30;;;;;;4936801;29;20514;-79
2022/03/06 13:20:20;;;;;;;4.60;2.43;;;-1.10;96.30;;;;;;4919984;29;20230;-80
2022/03/06 13:22:45;;;;;;;3.57;3.07;;;-1.20;96.30;;;;;;4920154;29;20459;-79
2022/03/06 13:25:11;;;;;;;4.30;2.10;;;-1.10;96.30;;;;;;4920035;29;20180;-79
2022/03/06 13:27:39;;;;;;;3.70;2.77;;;-1.10;96.30;;;;;;4937047;29;20634;-79
2022/03/06 13:30:05;;;;;;;2.43;2.23;;;-1.10;96.30;;;;;;4936977;29;20203;-79
2022/03/06 13:32:32;;;;;;;2.53;2.30;;;-1.20;96.30;;;;;;4936946;29;20950;-79
2022/03/06 13:34:58;;;;;;;4.47;2.93;;;-1.20;96.30;;;;;;4919744;29;20733;-79
2022/03/06 13:37:36;;;;;;;2.33;1.97;;;-1.20;96.30;;;;;;4936475;29;20506;-79
2022/03/06 13:40:08;;;;;;;2.00;1.80;;;-1.30;96.30;;;;;;4936636;29;20804;-79
2022/03/06 13:42:35;;;;;;;5.47;2.40;;;-1.30;96.30;;;;;;4919478;29;20443;-79
2022/03/06 13:45:04;;;;;;;3.33;1.90;;;-1.20;96.30;;;;;;4919340;29;20442;-79
2022/03/06 13:47:46;;;;;;;5.33;1.90;;;-1.30;96.30;;;;;;4918828;29;20427;-80
2022/03/06 13:50:20;;;;;;;3.37;2.30;;;-1.30;96.30;;;;;;4919152;29;20576;-79
2022/03/06 13:52:46;;;;;;;2.67;2.40;;;-1.30;96.30;;;;;;4936499;29;20407;-79
2022/03/06 13:55:13;;;;;;;5.43;2.33;;;-1.30;96.30;;;;;;4919057;29;20511;-79
2022/03/06 13:57:41;;;;;;;3.20;2.33;;;-1.30;96.30;;;;;;4936182;29;20427;-78
2022/03/06 14:00:28;;;;;;;5.13;3.40;;;-1.40;96.30;;;;;;4919286;29;20479;-79
2022/03/06 14:03:05;;;;;;;4.20;2.37;;;-1.40;96.30;;;;;;4936116;29;20423;-79
2022/03/06 14:05:33;;;;;;;3.20;2.30;;;-1.50;96.30;;;;;;4936364;29;20415;-79
2022/03/06 14:08:12;;;;;;;2.90;2.03;;;-1.50;96.30;;;;;;4935743;29;20798;-79
2022/03/06 14:10:43;;;;;;;2.77;2.10;;;-1.50;96.30;;;;;;4918758;29;20447;-79
2022/03/06 14:13:35;;;;;;;5.60;2.30;;;-1.50;96.30;;;;;;4936211;29;20403;-78
2022/03/06 14:16:09;;;;;;;3.63;2.27;;;-1.50;96.30;;;;;;4918925;29;21008;-78
2022/03/06 14:18:39;;;;;;;2.03;1.90;;;-1.50;96.30;;;;;;4935671;29;20427;-79
2022/03/06 14:21:07;;;;;;;2.43;2.23;;;-1.40;96.30;;;;;;4918453;29;20440;-78
2022/03/06 14:23:32;;;;;;;2.60;2.17;;;-1.50;96.30;;;;;;4935677;29;20455;-80
2022/03/06 14:25:58;;;;;;;3.27;2.53;;;-1.50;96.30;;;;;;4935157;29;20514;-79
2022/03/06 14:28:25;;;;;;;3.87;2.07;;;-1.50;96.30;;;;;;4917802;29;20199;-79
2022/03/06 14:30:51;;;;;;;2.60;2.07;;;-1.50;96.30;;;;;;4918494;29;20202;-79
2022/03/06 14:33:16;;;;;;;2.60;2.27;;;-1.50;96.30;;;;;;4918546;29;20424;-78
2022/03/06 14:35:42;;;;;;;3.20;2.10;;;-1.50;96.30;;;;;;4918364;29;20178;-78
2022/03/06 14:38:07;;;;;;;2.30;2.03;;;-1.50;96.30;;;;;;4918140;29;20530;-79
2022/03/06 14:40:33;;;;;;;3.07;2.77;;;-1.60;96.30;;;;;;4918101;29;20251;-79
2022/03/06 14:43:00;;;;;;;4.00;3.07;;;-1.60;96.30;;;;;;4935284;29;20541;-79
2022/03/06 14:45:26;;;;;;;2.97;2.27;;;-1.60;96.30;;;;;;4935064;29;20404;-79
2022/03/06 14:47:55;;;;;;;5.67;2.20;;;-1.60;96.30;;;;;;4935548;29;20434;-79
2022/03/06 14:50:21;;;;;;;2.70;2.33;;;-1.60;96.30;;;;;;4935482;29;20454;-79
2022/03/06 14:52:46;;;;;;;3.03;2.40;;;-1.70;96.30;;;;;;4918705;29;20430;-78
2022/03/06 14:55:13;;;;;;;3.20;2.00;;;-1.70;96.30;;;;;;4935377;29;20514;-78
2022/03/06 14:57:38;;;;;;;4.80;2.53;;;-1.80;96.30;;;;;;4918356;29;20217;-79
2022/03/06 15:00:05;;;;;;;4.93;2.67;;;-1.80;96.30;;;;;;4919153;29;20792;-79
2022/03/06 15:02:31;;;;;;;2.80;2.50;;;-1.80;96.30;;;;;;4918776;29;20283;-79
2022/03/06 15:04:57;;;;;;;4.43;2.40;;;-1.90;96.30;;;;;;4936076;29;20416;-79
2022/03/06 15:07:22;;;;;;;3.40;2.97;;;-1.80;96.30;;;;;;4918627;29;20427;-79
2022/03/06 15:09:48;;;;;;;6.27;3.23;;;-1.90;96.30;;;;;;4917717;29;20298;-79
2022/03/06 15:12:13;;;;;;;5.80;4.23;;;-1.80;96.30;;;;;;4934863;29;20571;-79
2022/03/06 15:14:39;;;;;;;6.53;3.10;;;-1.80;96.30;;;;;;4934932;29;20175;-78
2022/03/06 15:17:04;;;;;;;12.60;4.60;;;-1.90;96.30;;;;;;4917784;29;20182;-79
2022/03/06 15:19:30;;;;;;;3.20;2.73;;;-1.90;96.30;;;;;;4934609;29;20259;-79
2022/03/06 15:21:55;;;;;;;6.50;4.27;;;-1.90;96.30;;;;;;4917659;29;20195;-79
2022/03/06 15:24:21;;;;;;;5.60;2.67;;;-1.90;96.30;;;;;;4917816;29;20295;-79
2022/03/06 15:26:46;;;;;;;4.57;2.67;;;-2.00;96.30;;;;;;4917904;29;20657;-79
2022/03/06 15:29:12;;;;;;;20.27;4.30;;;-2.10;96.30;;;;;;4935259;29;20258;-79
2022/03/06 15:31:37;;;;;;;7.00;4.57;;;-2.00;96.30;;;;;;4918110;29;20202;-79
2022/03/06 15:34:04;;;;;;;7.40;3.77;;;-2.10;96.30;;;;;;4917868;29;20184;-79
2022/03/06 15:36:30;;;;;;;4.10;3.70;;;-2.10;96.30;;;;;;4937190;29;20176;-78
2022/03/06 15:38:56;;;;;;;3.93;3.37;;;-2.10;96.30;;;;;;4942749;29;20419;-79
2022/03/06 15:41:22;;;;;;;6.90;3.70;;;-2.10;96.30;;;;;;4924957;29;20448;-79
2022/03/06 15:43:48;;;;;;;6.73;3.90;;;-2.10;96.30;;;;;;4921729;29;20478;-78
2022/03/06 15:46:13;;;;;;;5.87;3.60;;;-2.20;96.30;;;;;;4921212;29;20480;-79
2022/03/06 15:48:39;;;;;;;5.57;3.50;;;-2.10;96.30;;;;;;4938047;29;20209;-79
2022/03/06 15:51:04;;;;;;;4.80;3.50;;;-2.10;96.30;;;;;;4921163;29;20191;-78
2022/03/06 15:53:31;;;;;;;2.70;2.50;;;-2.10;96.30;;;;;;4921073;29;20227;-78
2022/03/06 15:55:56;;;;;;;4.60;3.23;;;-2.10;96.30;;;;;;4921017;29;20266;-79
2022/03/06 15:58:24;;;;;;;7.97;3.53;;;-2.10;96.30;;;;;;4920844;29;20851;-76
2022/03/06 16:00:49;;;;;;;6.27;3.17;;;-2.10;96.30;;;;;;4920855;29;20191;-79
2022/03/06 16:03:16;;;;;;;5.17;3.90;;;-2.10;96.30;;;;;;4920899;29;20412;-78
2022/03/06 16:05:42;;;;;;;3.93;2.27;;;-2.10;96.30;;;;;;4921072;29;20235;-78
2022/03/06 16:08:08;;;;;;;3.67;2.67;;;-2.20;96.30;;;;;;4920556;29;20416;-79
2022/03/06 16:10:35;;;;;;;3.50;3.07;;;-2.20;96.30;;;;;;4937826;29;20192;-79
2022/03/06 16:13:01;;;;;;;3.00;2.70;;;-2.30;96.30;;;;;;4937951;29;20415;-78
2022/03/06 16:15:26;;;;;;;8.17;4.50;;;-2.30;96.30;;;;;;4938354;29;20419;-78
2022/03/06 16:17:52;;;;;;;3.30;3.00;;;-2.30;96.30;;;;;;4920495;29;20183;-79
2022/03/06 16:20:18;;;;;;;3.80;3.37;;;-2.30;96.30;;;;;;4920807;29;20184;-79
2022/03/06 16:22:44;;;;;;;4.97;2.70;;;-2.30;96.30;;;;;;4920963;29;20199;-79
2022/03/06 16:25:10;;;;;;;6.37;4.10;;;-2.40;96.30;;;;;;4937582;29;20460;-78
2022/03/06 16:27:36;;;;;;;5.20;4.10;;;-2.40;96.30;;;;;;4920283;29;20223;-79
2022/03/06 16:30:05;;;;;;;8.00;4.23;;;-2.40;96.30;;;;;;4920310;29;20231;-78
2022/03/06 16:32:31;;;;;;;5.33;3.87;;;-2.40;96.30;;;;;;4937353;29;20436;-78
2022/03/06 16:34:56;;;;;;;6.87;4.40;;;-2.40;96.30;;;;;;4937422;29;20973;-79
2022/03/06 16:37:22;;;;;;;6.47;3.40;;;-2.40;96.30;;;;;;4920521;29;20688;-78
2022/03/06 16:39:47;;;;;;;3.10;2.63;;;-2.40;96.30;;;;;;4920094;29;20187;-78
2022/03/06 16:42:13;;;;;;;2.33;2.10;;;-2.50;96.30;;;;;;4920106;29;20666;-79
2022/03/06 16:44:39;;;;;;;4.00;2.73;;;-2.50;96.30;;;;;;4937202;29;20186;-78
2022/03/06 16:47:05;;;;;;;4.83;3.17;;;-2.60;96.30;;;;;;4937135;29;20654;-79
2022/03/06 16:49:32;;;;;;;3.50;3.17;;;-2.60;96.30;;;;;;4936323;29;20443;-78
2022/03/06 16:51:57;;;;;;;3.97;3.10;;;-2.60;96.30;;;;;;4937081;29;20431;-78
2022/03/06 16:54:23;;;;;;;4.30;3.30;;;-2.60;96.30;;;;;;4919863;29;20408;-78
2022/03/06 16:56:48;;;;;;;7.17;3.80;;;-2.60;96.30;;;;;;4920039;29;20176;-78
2022/03/06 16:59:14;;;;;;;6.57;3.33;;;-2.60;96.30;;;;;;4936761;29;20183;-78
2022/03/06 17:01:39;;;;;;;5.40;2.90;;;-2.60;96.30;;;;;;4936846;29;20191;-78
2022/03/06 17:04:05;;;;;;;6.07;3.60;;;-2.60;96.30;;;;;;4919802;29;20247;-78
2022/03/06 17:06:31;;;;;;;5.90;3.73;;;-2.60;96.30;;;;;;4919764;29;20179;-75
2022/03/06 17:08:58;;;;;;;10.53;3.73;;;-2.60;96.30;;;;;;4936585;29;20450;-79
2022/03/06 17:11:24;;;;;;;4.73;2.93;;;-2.70;96.30;;;;;;4919492;29;20462;-78
2022/03/06 17:13:49;;;;;;;5.60;3.23;;;-2.70;96.30;;;;;;4919558;29;20925;-80
2022/03/06 17:16:15;;;;;;;3.33;3.00;;;-2.70;96.30;;;;;;4919674;29;20811;-79
2022/03/06 17:18:40;;;;;;;4.60;3.57;;;-2.70;96.30;;;;;;4919927;29;20279;-79
2022/03/06 17:21:06;;;;;;;4.87;3.10;;;-2.70;96.30;;;;;;4936535;29;20203;-78
2022/03/06 17:23:31;;;;;;;10.00;3.80;;;-2.70;96.30;;;;;;4919489;29;20242;-78
2022/03/06 17:25:57;;;;;;;8.33;4.37;;;-2.70;96.30;;;;;;4919406;29;20545;-79
2022/03/06 17:28:23;;;;;;;5.93;3.40;;;-2.70;96.30;;;;;;4936152;29;20255;-78
2022/03/06 17:30:49;;;;;;;5.10;3.03;;;-2.70;96.30;;;;;;4919246;29;20953;-79
2022/03/06 17:33:14;;;;;;;5.47;3.33;;;-2.70;96.30;;;;;;4919333;29;20267;-79
2022/03/06 17:35:40;;;;;;;3.53;2.43;;;-2.70;96.30;;;;;;4936289;29;20733;-79
2022/03/06 17:38:05;;;;;;;2.60;2.30;;;-2.70;96.30;;;;;;4919011;29;20174;-78
2022/03/06 17:40:31;;;;;;;4.10;3.33;;;-2.70;96.30;;;;;;4919035;29;20571;-78
2022/03/06 17:42:57;;;;;;;3.90;3.30;;;-2.70;96.30;;;;;;4919000;29;20187;-78
2022/03/06 17:45:23;;;;;;;5.27;3.10;;;-2.70;96.30;;;;;;4918957;29;20184;-79
2022/03/06 17:47:48;;;;;;;6.53;3.80;;;-2.80;96.30;;;;;;4935867;29;20187;-79
2022/03/06 17:50:14;;;;;;;5.13;3.10;;;-2.80;96.30;;;;;;4935919;29;20751;-79